Hlavní strana
METAR-TAF:

METAR-TAF

Letiště :

Illizi, Alžírsko

zeměpisná šířka: 26-30N, zeměpisná délka: 008-25E, výška: 558 m

Aktuální stav počasí

Zpráva byla vytvořena před 57 minutami, v 02:00 UTC
Severní vítr 13 kt
Teplota 20°C
Vlhkost vzduchu 26%
Tlak 1013 hPa
Viditelnost: 2000 m
zákal

METAR: DAAP 040200Z 36013KT 2000 HZ NSC 20/00 Q1013

Čas: 03:57 (02:57 UTC)

Předpověď počasí

Zpráva byla vytvořena před 57 minutami, v 02:00 UTC
Předpověď platná od 04 v 03 UTC do 04 v 12 UTC
Severní vítr 12 kt
Viditelnost: 2000 m
zákal
Změna
od 04 v 04 UTC do 04 v 08 UTC
Viditelnost: 6000 m

TAF: DAAP 040200Z 0403/0412 36012KT 2000 HZ NSC BECMG 0404/0408 6000 NSW

Stav a předpovědi počasí z více než 4 000 letišť (zprávy METAR a TAF).

Červené a žluté tečky na mapě představují dostupné meteorologické stanice.

Když kurzor umístíte na tečku, zobrazí se název stanice.

Pak kliknutím zobrazíte stav a předpověď počasí.

Chcete-li změnit mapu, kliknutím na zelené tlačítko se znaménkem +mapu přiblížíte, kliknutím na zelené tlačítko se znaménkem – mapu oddálíte a kliknutím na zelené šipky přejdete na sousední mapy.


METAR-TAF: